< < Back
Terminal Aerodrome Forecast


Current Version              Previous Versions:   1  2  3  4  5  6  7  8  9  

Terminal Aerodrome Forecast

805
FTUS44 KOHX 282329
TAFCSV
TAF
KCSV 282329Z 2900/2924 27003KT P6SM SCT050 BKN120 BKN250
      TEMPO 2908/2912 3SM BR
     FM291400 32004KT P6SM SCT100 BKN250
     FM291800 34007KT P6SM VCTS SCT050CB BKN250=



Latest METAR

854
SAUS70 KWBC 290900 RRJ
MTRCSV
METAR KCSV 290853Z AUTO 00000KT 7SM CLR 22/19 A3006 RMK AO2 SLP154
T02170194 55007


USA.gov is the U.S. government's official web portal to all federal, state and local government web resources and services.